Time;durP1;ratioP1;P1;durP2;ratioP2;P2;SDS_P1;SDS_P2;PMS_P1;PMS_P2;Temp;Humidity;BMP_temperature;BMP_pressure;BME280_temperature;BME280_humidity;BME280_pressure;Samples;Min_cycle;Max_cycle;Signal;HPM_P1;HPM_P2
2021/09/06 00:00:05;;;;;;;32.20;29.50;;;;;;;;;;5055873;28;20447;-86
2021/09/06 00:02:33;;;;;;;33.37;30.37;;;;;;;;;;5038515;28;20447;-87
2021/09/06 00:05:00;;;;;;;32.13;29.13;;;;;;;;;;5056383;28;20473;-87
2021/09/06 00:07:28;;;;;;;33.40;30.30;;;;;;;;;;5056124;28;20448;-86
2021/09/06 00:09:59;;;;;;;32.60;29.50;;;;;;;;;;5055861;28;20514;-87
2021/09/06 00:12:26;;;;;;;32.70;30.00;;;;;;;;;;5055910;28;20417;-86
2021/09/06 00:14:54;;;;;;;32.03;29.33;;;;;;;;;;5055470;28;20436;-87
2021/09/06 00:17:21;;;;;;;32.63;29.97;;;;;;;;;;5055715;28;20406;-86
2021/09/06 00:19:48;;;;;;;33.67;31.00;;;;;;;;;;5055560;28;20452;-87
2021/09/06 00:22:16;;;;;;;33.17;30.30;;;;;;;;;;5055826;28;20466;-86
2021/09/06 00:24:43;;;;;;;32.83;29.50;;;;;;;;;;5055642;28;20455;-87
2021/09/06 00:27:12;;;;;;;33.60;30.80;;;;;;;;;;5055714;28;20444;-86
2021/09/06 00:29:39;;;;;;;34.20;31.17;;;;;;;;;;5055581;28;20474;-87
2021/09/06 00:32:07;;;;;;;34.00;30.90;;;;;;;;;;5055436;28;20423;-87
2021/09/06 00:34:34;;;;;;;32.30;29.30;;;;;;;;;;5055441;28;20442;-87
2021/09/06 00:37:02;;;;;;;33.50;30.50;;;;;;;;;;5054967;28;20472;-86
2021/09/06 00:39:29;;;;;;;37.07;33.50;;;;;;;;;;5055399;28;20414;-87
2021/09/06 00:41:56;;;;;;;32.40;29.77;;;;;;;;;;5037617;28;20447;-87
2021/09/06 00:44:25;;;;;;;35.00;31.80;;;;;;;;;;5054802;28;20464;-86
2021/09/06 00:46:55;;;;;;;34.57;31.77;;;;;;;;;;5037668;28;20769;-87
2021/09/06 00:49:22;;;;;;;33.90;30.73;;;;;;;;;;5055276;28;20457;-87
2021/09/06 00:51:49;;;;;;;34.17;30.90;;;;;;;;;;5055241;28;20474;-87
2021/09/06 00:54:17;;;;;;;35.30;32.30;;;;;;;;;;5055177;28;20428;-86
2021/09/06 00:56:44;;;;;;;33.87;31.00;;;;;;;;;;5054732;28;20428;-87
2021/09/06 00:59:12;;;;;;;35.97;32.67;;;;;;;;;;5037236;28;20447;-87
2021/09/06 01:01:41;;;;;;;35.90;32.80;;;;;;;;;;5054974;28;20443;-87
2021/09/06 01:04:08;;;;;;;34.17;31.17;;;;;;;;;;5054910;28;20792;-87
2021/09/06 01:06:35;;;;;;;36.07;32.77;;;;;;;;;;5055253;28;20443;-87
2021/09/06 01:09:03;;;;;;;35.20;32.10;;;;;;;;;;5055075;28;20443;-87
2021/09/06 01:11:30;;;;;;;34.90;31.83;;;;;;;;;;5054359;28;20421;-87
2021/09/06 01:13:58;;;;;;;36.60;33.40;;;;;;;;;;5054907;28;20417;-86
2021/09/06 01:16:25;;;;;;;35.73;32.37;;;;;;;;;;5055169;28;20449;-86
2021/09/06 01:18:54;;;;;;;36.50;33.10;;;;;;;;;;5054546;28;20451;-87
2021/09/06 01:21:22;;;;;;;37.40;33.93;;;;;;;;;;5037522;28;20423;-86
2021/09/06 01:23:49;;;;;;;35.30;32.27;;;;;;;;;;5054648;28;20448;-86
2021/09/06 01:26:18;;;;;;;37.47;34.03;;;;;;;;;;5055177;28;20446;-86
2021/09/06 01:28:45;;;;;;;36.57;33.10;;;;;;;;;;5054847;28;20412;-86
2021/09/06 01:31:13;;;;;;;35.70;32.57;;;;;;;;;;5054574;28;20483;-87
2021/09/06 01:33:40;;;;;;;35.97;32.40;;;;;;;;;;5055072;28;20804;-86
2021/09/06 01:36:08;;;;;;;35.27;31.97;;;;;;;;;;5054969;28;20426;-86
2021/09/06 01:38:35;;;;;;;34.77;31.57;;;;;;;;;;5054938;28;20415;-86
2021/09/06 01:41:03;;;;;;;36.63;32.97;;;;;;;;;;5062913;28;20437;-87
2021/09/06 01:43:32;;;;;;;37.13;33.73;;;;;;;;;;5074150;28;20478;-86
2021/09/06 01:45:59;;;;;;;37.00;33.57;;;;;;;;;;5055602;28;20401;-87
2021/09/06 01:48:26;;;;;;;37.33;33.97;;;;;;;;;;5037365;28;20402;-86
2021/09/06 01:50:54;;;;;;;36.10;32.70;;;;;;;;;;5054124;28;20483;-87
2021/09/06 01:53:21;;;;;;;37.03;33.63;;;;;;;;;;5054375;28;20437;-86
2021/09/06 01:55:49;;;;;;;37.33;33.83;;;;;;;;;;5054481;28;20439;-86
2021/09/06 01:58:16;;;;;;;38.13;34.33;;;;;;;;;;5054357;28;20421;-87
2021/09/06 02:00:45;;;;;;;39.30;35.77;;;;;;;;;;5054072;28;20439;-87
2021/09/06 02:03:13;;;;;;;36.00;32.80;;;;;;;;;;5054398;28;20417;-86
2021/09/06 02:05:40;;;;;;;36.80;33.50;;;;;;;;;;5058324;28;20402;-87
2021/09/06 02:08:07;;;;;;;34.33;31.30;;;;;;;;;;5058425;28;20413;-87
2021/09/06 02:10:35;;;;;;;36.00;32.60;;;;;;;;;;5057935;28;21012;-86
2021/09/06 02:13:02;;;;;;;36.07;32.77;;;;;;;;;;5058177;28;20421;-87
2021/09/06 02:15:30;;;;;;;34.13;31.13;;;;;;;;;;5058080;28;20457;-86
2021/09/06 02:17:59;;;;;;;35.93;32.87;;;;;;;;;;5058635;28;20413;-87
2021/09/06 02:20:26;;;;;;;34.47;31.47;;;;;;;;;;5058192;28;20418;-87
2021/09/06 02:22:53;;;;;;;34.03;30.97;;;;;;;;;;5058074;28;20450;-87
2021/09/06 02:25:21;;;;;;;35.80;32.70;;;;;;;;;;5058161;28;20458;-86
2021/09/06 02:27:48;;;;;;;35.20;32.00;;;;;;;;;;5058638;28;20450;-87
2021/09/06 02:30:16;;;;;;;33.60;30.70;;;;;;;;;;5058804;28;20554;-86
2021/09/06 02:32:43;;;;;;;34.27;31.27;;;;;;;;;;5059289;28;20470;-86
2021/09/06 02:35:12;;;;;;;34.13;30.83;;;;;;;;;;5059060;28;20431;-87
2021/09/06 02:37:40;;;;;;;33.77;30.93;;;;;;;;;;5060457;28;20406;-87
2021/09/06 02:40:07;;;;;;;34.47;31.57;;;;;;;;;;5059811;28;20424;-87
2021/09/06 02:42:35;;;;;;;34.53;31.63;;;;;;;;;;5059864;28;20462;-86
2021/09/06 02:45:02;;;;;;;33.73;30.80;;;;;;;;;;5060447;28;20927;-86
2021/09/06 02:47:30;;;;;;;34.00;31.20;;;;;;;;;;5074122;28;20417;-86
2021/09/06 02:49:57;;;;;;;33.90;30.80;;;;;;;;;;5060747;28;20484;-87
2021/09/06 02:52:27;;;;;;;34.80;31.70;;;;;;;;;;5060914;28;20442;-86
2021/09/06 02:54:54;;;;;;;33.67;30.87;;;;;;;;;;5057998;28;20439;-87
2021/09/06 02:57:22;;;;;;;33.93;30.87;;;;;;;;;;5057690;28;20799;-87
2021/09/06 02:59:49;;;;;;;35.07;31.53;;;;;;;;;;5039756;28;20484;-87
2021/09/06 03:02:16;;;;;;;37.63;34.27;;;;;;;;;;5057677;28;20904;-86
2021/09/06 03:04:44;;;;;;;34.80;31.90;;;;;;;;;;5057858;28;20456;-87
2021/09/06 03:07:11;;;;;;;34.80;31.60;;;;;;;;;;5056889;28;20430;-87
2021/09/06 03:09:40;;;;;;;34.07;31.27;;;;;;;;;;5057181;28;20765;-86
2021/09/06 03:12:08;;;;;;;33.80;30.60;;;;;;;;;;5057269;28;20928;-86
2021/09/06 03:14:35;;;;;;;34.40;31.50;;;;;;;;;;5056568;28;20424;-87
2021/09/06 03:17:03;;;;;;;33.87;30.77;;;;;;;;;;5055853;28;20441;-88
2021/09/06 03:19:30;;;;;;;32.70;29.93;;;;;;;;;;5056569;28;20436;-87
2021/09/06 03:21:58;;;;;;;32.20;29.60;;;;;;;;;;5057224;28;20416;-87
2021/09/06 03:24:25;;;;;;;33.70;30.57;;;;;;;;;;5056885;28;20747;-86
2021/09/06 03:26:54;;;;;;;32.07;29.10;;;;;;;;;;5056603;28;20446;-87
2021/09/06 03:29:22;;;;;;;30.30;27.80;;;;;;;;;;5056573;28;20431;-86
2021/09/06 03:31:49;;;;;;;31.70;29.20;;;;;;;;;;5056951;28;20461;-87
2021/09/06 03:34:17;;;;;;;32.63;29.63;;;;;;;;;;5057439;28;20451;-87
2021/09/06 03:36:44;;;;;;;34.10;30.90;;;;;;;;;;5056460;28;20442;-87
2021/09/06 03:39:11;;;;;;;30.97;28.47;;;;;;;;;;5056821;28;20783;-87
2021/09/06 03:41:39;;;;;;;34.27;31.13;;;;;;;;;;5057235;28;20929;-87
2021/09/06 03:44:07;;;;;;;30.80;28.17;;;;;;;;;;5056070;28;20453;-86
2021/09/06 03:46:35;;;;;;;31.37;28.63;;;;;;;;;;5056356;28;20420;-87
2021/09/06 03:49:02;;;;;;;32.53;29.73;;;;;;;;;;5056498;28;20410;-86
2021/09/06 03:51:30;;;;;;;31.43;28.47;;;;;;;;;;5056135;28;20549;-86
2021/09/06 03:53:58;;;;;;;34.70;31.47;;;;;;;;;;5058825;28;20452;-87
2021/09/06 03:56:25;;;;;;;34.40;31.17;;;;;;;;;;5058077;28;20413;-87
2021/09/06 03:58:52;;;;;;;32.33;29.13;;;;;;;;;;5056055;28;20794;-86
2021/09/06 04:01:21;;;;;;;31.27;28.70;;;;;;;;;;5055974;28;20439;-86
2021/09/06 04:03:49;;;;;;;32.30;29.60;;;;;;;;;;5057172;28;20777;-87
2021/09/06 04:06:16;;;;;;;33.20;30.27;;;;;;;;;;5057999;28;20417;-87
2021/09/06 04:08:44;;;;;;;33.53;30.50;;;;;;;;;;5058857;28;20438;-87
2021/09/06 04:11:11;;;;;;;32.97;29.87;;;;;;;;;;5056724;28;20449;-87
2021/09/06 04:13:39;;;;;;;33.20;30.30;;;;;;;;;;5056051;28;20533;-86
2021/09/06 04:16:06;;;;;;;31.40;28.57;;;;;;;;;;5056567;28;20413;-86
2021/09/06 04:18:35;;;;;;;32.40;29.70;;;;;;;;;;5057588;28;20435;-87
2021/09/06 04:21:03;;;;;;;31.80;29.30;;;;;;;;;;5067131;28;20447;-86
2021/09/06 04:23:31;;;;;;;32.23;29.50;;;;;;;;;;5062127;28;20550;-86
2021/09/06 04:26:00;;;;;;;32.83;29.80;;;;;;;;;;5057341;28;20435;-86
2021/09/06 04:28:28;;;;;;;33.97;30.70;;;;;;;;;;5056089;28;20414;-87
2021/09/06 04:30:56;;;;;;;33.27;30.20;;;;;;;;;;5039487;28;20440;-86
2021/09/06 04:33:24;;;;;;;33.30;30.40;;;;;;;;;;5056340;28;20450;-87
2021/09/06 04:35:59;;;;;;;32.50;29.43;;;;;;;;;;5062875;28;20436;-86
2021/09/06 04:38:27;;;;;;;33.77;30.70;;;;;;;;;;5059986;28;20453;-87
2021/09/06 04:40:54;;;;;;;32.53;29.63;;;;;;;;;;5057055;28;20430;-87
2021/09/06 04:43:21;;;;;;;32.63;29.60;;;;;;;;;;5055770;28;20476;-87
2021/09/06 04:45:49;;;;;;;32.97;30.00;;;;;;;;;;5056746;28;20420;-86
2021/09/06 04:48:16;;;;;;;33.37;30.30;;;;;;;;;;5056381;28;20891;-87
2021/09/06 04:50:44;;;;;;;35.63;32.50;;;;;;;;;;5056416;28;20473;-87
2021/09/06 04:53:12;;;;;;;34.13;31.13;;;;;;;;;;5056341;28;20456;-87
2021/09/06 04:55:40;;;;;;;36.80;33.00;;;;;;;;;;5039006;28;20443;-86
2021/09/06 04:58:08;;;;;;;32.57;29.80;;;;;;;;;;5057184;28;20466;-87
2021/09/06 05:00:35;;;;;;;33.13;30.13;;;;;;;;;;5056009;28;20438;-86
2021/09/06 05:03:02;;;;;;;34.60;31.70;;;;;;;;;;5056060;28;20435;-86
2021/09/06 05:05:30;;;;;;;36.40;32.70;;;;;;;;;;5055430;28;20810;-87
2021/09/06 05:07:57;;;;;;;33.87;30.90;;;;;;;;;;5055958;28;20753;-80
2021/09/06 05:10:26;;;;;;;33.07;30.20;;;;;;;;;;5056066;28;20443;-81
2021/09/06 05:12:53;;;;;;;33.53;30.57;;;;;;;;;;5054872;28;20439;-82
2021/09/06 05:15:21;;;;;;;33.23;30.40;;;;;;;;;;5056036;28;20432;-87
2021/09/06 05:17:48;;;;;;;34.03;31.00;;;;;;;;;;5056029;28;20420;-87
2021/09/06 05:20:15;;;;;;;37.00;33.60;;;;;;;;;;5054233;28;20899;-81
2021/09/06 05:22:43;;;;;;;35.13;32.07;;;;;;;;;;5054318;28;20446;-81
2021/09/06 05:25:10;;;;;;;34.53;31.47;;;;;;;;;;5054202;28;20428;-81
2021/09/06 05:27:43;;;;;;;33.97;30.57;;;;;;;;;;5054598;28;20406;-81
2021/09/06 05:30:11;;;;;;;35.77;32.40;;;;;;;;;;5054205;28;20456;-81
2021/09/06 05:32:39;;;;;;;36.70;33.40;;;;;;;;;;5054774;28;20461;-82
2021/09/06 05:35:06;;;;;;;35.60;32.23;;;;;;;;;;5054158;28;20442;-81
2021/09/06 05:37:34;;;;;;;35.67;32.57;;;;;;;;;;5053857;28;20944;-82
2021/09/06 05:40:02;;;;;;;35.73;32.40;;;;;;;;;;5053356;28;20458;-81
2021/09/06 05:42:30;;;;;;;35.37;32.10;;;;;;;;;;5055564;28;20509;-81
2021/09/06 05:44:59;;;;;;;35.23;31.77;;;;;;;;;;5059569;28;20544;-79
2021/09/06 05:47:26;;;;;;;36.93;33.70;;;;;;;;;;5057986;28;20428;-81
2021/09/06 05:49:54;;;;;;;35.23;32.37;;;;;;;;;;5054964;28;20405;-81
2021/09/06 05:52:24;;;;;;;36.47;33.03;;;;;;;;;;5055348;28;20505;-78
2021/09/06 05:54:52;;;;;;;36.20;33.00;;;;;;;;;;5054992;28;20598;-81
2021/09/06 05:57:19;;;;;;;35.47;32.30;;;;;;;;;;5054483;28;20910;-81
2021/09/06 05:59:47;;;;;;;37.03;33.53;;;;;;;;;;5056360;28;20439;-81
2021/09/06 06:02:15;;;;;;;37.30;33.70;;;;;;;;;;5055936;28;20449;-81
2021/09/06 06:04:43;;;;;;;36.20;32.77;;;;;;;;;;5053634;28;20417;-81
2021/09/06 06:07:10;;;;;;;36.60;33.40;;;;;;;;;;5053821;28;20457;-81
2021/09/06 06:09:37;;;;;;;36.07;32.70;;;;;;;;;;5054120;28;20413;-80
2021/09/06 06:12:05;;;;;;;37.33;33.77;;;;;;;;;;5053907;28;20489;-79
2021/09/06 06:14:32;;;;;;;36.40;33.00;;;;;;;;;;5053620;28;20426;-81
2021/09/06 06:17:00;;;;;;;35.67;32.37;;;;;;;;;;5054421;28;20405;-81
2021/09/06 06:19:29;;;;;;;35.27;31.97;;;;;;;;;;5054308;28;20921;-81
2021/09/06 06:21:56;;;;;;;35.70;32.60;;;;;;;;;;5054095;28;20421;-81
2021/09/06 06:24:23;;;;;;;35.20;31.90;;;;;;;;;;5053862;28;20418;-81
2021/09/06 06:26:51;;;;;;;35.90;32.80;;;;;;;;;;5053279;28;20508;-81
2021/09/06 06:29:18;;;;;;;36.97;33.57;;;;;;;;;;5054241;28;20914;-82
2021/09/06 06:31:46;;;;;;;40.07;36.37;;;;;;;;;;5053253;28;20482;-82
2021/09/06 06:34:13;;;;;;;37.50;33.83;;;;;;;;;;5053059;28;20422;-81
2021/09/06 06:36:42;;;;;;;36.50;33.00;;;;;;;;;;5053141;28;20453;-81
2021/09/06 06:39:12;;;;;;;39.07;35.50;;;;;;;;;;5053502;28;20425;-81
2021/09/06 06:41:39;;;;;;;38.00;34.63;;;;;;;;;;5035760;28;20773;-82
2021/09/06 06:44:07;;;;;;;41.17;37.03;;;;;;;;;;5052947;28;21009;-82
2021/09/06 06:46:34;;;;;;;41.47;37.47;;;;;;;;;;5053361;28;20800;-82
2021/09/06 06:49:02;;;;;;;39.20;35.60;;;;;;;;;;5053166;28;20421;-82
2021/09/06 06:51:29;;;;;;;37.90;34.60;;;;;;;;;;5056069;28;20483;-82
2021/09/06 06:53:58;;;;;;;40.40;36.50;;;;;;;;;;5057127;28;20439;-82
2021/09/06 06:56:25;;;;;;;40.07;36.20;;;;;;;;;;5056485;28;20439;-82
2021/09/06 06:58:52;;;;;;;40.33;36.73;;;;;;;;;;5056864;28;20447;-82
2021/09/06 07:01:20;;;;;;;39.80;35.97;;;;;;;;;;5056699;28;20442;-83
2021/09/06 07:03:47;;;;;;;41.60;37.30;;;;;;;;;;5056631;28;20444;-83
2021/09/06 07:06:15;;;;;;;40.93;36.67;;;;;;;;;;5039031;28;20429;-84
2021/09/06 07:08:42;;;;;;;39.57;35.67;;;;;;;;;;5056426;28;20443;-84
2021/09/06 07:11:11;;;;;;;41.40;37.20;;;;;;;;;;5056837;28;20481;-84
2021/09/06 07:13:38;;;;;;;40.70;36.77;;;;;;;;;;5057043;28;20413;-85
2021/09/06 07:16:06;;;;;;;38.80;34.83;;;;;;;;;;5039391;28;20920;-82
2021/09/06 07:18:33;;;;;;;39.40;35.70;;;;;;;;;;5056408;28;20913;-82
2021/09/06 07:21:01;;;;;;;39.73;35.73;;;;;;;;;;5058160;28;20430;-82
2021/09/06 07:23:29;;;;;;;41.43;37.13;;;;;;;;;;5056819;28;20412;-82
2021/09/06 07:25:56;;;;;;;40.47;36.23;;;;;;;;;;5056651;28;20426;-81
2021/09/06 07:28:25;;;;;;;39.00;35.10;;;;;;;;;;5056173;28;20437;-82
2021/09/06 07:30:52;;;;;;;42.83;38.33;;;;;;;;;;5056113;28;20793;-82
2021/09/06 07:33:20;;;;;;;38.23;34.93;;;;;;;;;;5056206;28;20438;-81
2021/09/06 07:35:47;;;;;;;38.77;35.07;;;;;;;;;;5055793;28;20442;-81
2021/09/06 07:38:15;;;;;;;41.03;37.23;;;;;;;;;;5038280;28;20455;-81
2021/09/06 07:40:42;;;;;;;40.50;36.40;;;;;;;;;;5056638;28;20439;-81
2021/09/06 07:43:10;;;;;;;40.07;36.27;;;;;;;;;;5055807;28;20465;-81
2021/09/06 07:45:39;;;;;;;39.80;35.70;;;;;;;;;;5056208;28;20467;-81
2021/09/06 07:48:06;;;;;;;39.50;35.90;;;;;;;;;;5055603;28;20462;-80
2021/09/06 07:50:33;;;;;;;40.07;36.47;;;;;;;;;;5055591;28;20795;-81
2021/09/06 07:53:01;;;;;;;38.37;34.87;;;;;;;;;;5055722;28;20507;-81
2021/09/06 07:55:28;;;;;;;38.13;34.50;;;;;;;;;;5055696;28;20450;-82
2021/09/06 07:57:56;;;;;;;36.87;33.43;;;;;;;;;;5056661;28;20432;-82
2021/09/06 08:00:23;;;;;;;38.83;35.23;;;;;;;;;;5055478;28;20438;-80
2021/09/06 08:02:52;;;;;;;38.17;34.60;;;;;;;;;;5054812;28;20795;-81
2021/09/06 08:05:20;;;;;;;36.87;33.43;;;;;;;;;;5056309;28;20436;-86
2021/09/06 08:07:50;;;;;;;36.43;33.17;;;;;;;;;;5056794;28;20482;-80
2021/09/06 08:10:18;;;;;;;38.20;34.70;;;;;;;;;;5055889;28;20526;-81
2021/09/06 08:12:45;;;;;;;35.87;32.57;;;;;;;;;;5047874;28;20508;-81
2021/09/06 08:15:13;;;;;;;36.50;33.10;;;;;;;;;;5055527;28;20958;-81
2021/09/06 08:17:41;;;;;;;35.67;32.57;;;;;;;;;;5060494;28;20781;-84
2021/09/06 08:23:20;;;;;;;37.30;34.00;;;;;;;;;;5075804;28;20477;-83
2021/09/06 08:25:53;;;;;;;34.80;31.80;;;;;;;;;;5068630;28;20431;-79
2021/09/06 08:31:03;;;;;;;33.30;30.53;;;;;;;;;;5065858;28;20532;-80
2021/09/06 08:33:45;;;;;;;34.83;31.70;;;;;;;;;;5057627;28;20488;-78
2021/09/06 08:36:13;;;;;;;35.47;32.60;;;;;;;;;;5058064;28;20447;-79
2021/09/06 08:38:48;;;;;;;34.17;31.07;;;;;;;;;;5062999;28;20443;-77
2021/09/06 08:41:16;;;;;;;35.37;32.27;;;;;;;;;;5053332;28;20446;-77
2021/09/06 08:43:43;;;;;;;33.50;30.67;;;;;;;;;;5054959;28;20471;-79
2021/09/06 08:46:11;;;;;;;34.17;31.20;;;;;;;;;;5054779;28;20441;-79
2021/09/06 08:48:38;;;;;;;33.43;30.60;;;;;;;;;;5054385;28;20447;-86
2021/09/06 08:51:06;;;;;;;33.53;30.60;;;;;;;;;;5054457;28;20469;-79
2021/09/06 08:53:33;;;;;;;34.47;31.63;;;;;;;;;;5054576;28;20895;-79
2021/09/06 08:56:03;;;;;;;34.37;31.37;;;;;;;;;;5054962;28;20443;-79
2021/09/06 08:58:30;;;;;;;35.77;32.50;;;;;;;;;;5054509;28;20433;-80
2021/09/06 09:00:58;;;;;;;33.47;30.57;;;;;;;;;;5054432;28;20445;-79
2021/09/06 09:03:25;;;;;;;32.67;29.93;;;;;;;;;;5054777;28;20427;-79
2021/09/06 09:05:57;;;;;;;33.83;30.93;;;;;;;;;;5055039;28;20410;-80
2021/09/06 09:08:24;;;;;;;31.90;29.17;;;;;;;;;;5056569;28;20438;-81
2021/09/06 09:10:52;;;;;;;31.90;29.30;;;;;;;;;;5058127;28;20435;-81
2021/09/06 09:13:21;;;;;;;33.40;30.80;;;;;;;;;;5056144;28;20456;-79
2021/09/06 09:15:53;;;;;;;32.77;30.17;;;;;;;;;;5054704;28;20433;-81
2021/09/06 09:18:24;;;;;;;34.20;31.40;;;;;;;;;;5054147;28;20404;-82
2021/09/06 09:20:58;;;;;;;33.33;30.67;;;;;;;;;;5054597;28;20846;-86
2021/09/06 09:23:35;;;;;;;34.63;31.53;;;;;;;;;;5055613;28;20454;-82
2021/09/06 09:26:02;;;;;;;35.20;32.40;;;;;;;;;;5054839;28;20420;-82
2021/09/06 09:28:31;;;;;;;37.93;34.23;;;;;;;;;;5054144;28;20783;-82
2021/09/06 09:31:05;;;;;;;33.17;30.27;;;;;;;;;;5055498;28;20410;-81
2021/09/06 09:33:38;;;;;;;33.80;30.83;;;;;;;;;;5055025;28;20479;-81
2021/09/06 09:36:06;;;;;;;32.70;30.10;;;;;;;;;;5053920;28;20921;-85
2021/09/06 09:38:35;;;;;;;33.03;30.23;;;;;;;;;;5054714;28;20412;-86
2021/09/06 09:41:04;;;;;;;33.80;31.00;;;;;;;;;;5054545;28;20442;-87
2021/09/06 09:43:32;;;;;;;33.53;30.90;;;;;;;;;;5054217;28;20486;-87
2021/09/06 09:46:03;;;;;;;35.20;32.00;;;;;;;;;;5054629;28;20901;-86
2021/09/06 09:48:30;;;;;;;33.03;30.53;;;;;;;;;;5054098;28;20757;-84
2021/09/06 09:50:58;;;;;;;36.20;32.87;;;;;;;;;;5053979;28;20472;-84
2021/09/06 09:53:25;;;;;;;35.17;32.13;;;;;;;;;;5053458;28;20466;-84
2021/09/06 09:55:53;;;;;;;35.17;32.27;;;;;;;;;;5053742;28;20418;-84
2021/09/06 09:58:20;;;;;;;36.07;33.00;;;;;;;;;;5053470;28;20436;-84
2021/09/06 10:00:49;;;;;;;34.23;31.33;;;;;;;;;;5053762;28;20428;-81
2021/09/06 10:03:19;;;;;;;35.10;32.30;;;;;;;;;;5053311;28;20436;-81
2021/09/06 10:05:50;;;;;;;34.03;31.33;;;;;;;;;;5055139;28;20540;-80
2021/09/06 10:08:18;;;;;;;34.10;31.40;;;;;;;;;;5055155;28;20788;-80
2021/09/06 10:10:46;;;;;;;32.53;29.80;;;;;;;;;;5036854;28;20449;-81
2021/09/06 10:13:14;;;;;;;33.10;30.40;;;;;;;;;;5054800;28;20473;-82
2021/09/06 10:15:43;;;;;;;32.20;29.63;;;;;;;;;;5054083;28;20470;-81
2021/09/06 10:18:22;;;;;;;32.13;29.63;;;;;;;;;;5054263;28;20416;-80
2021/09/06 10:20:50;;;;;;;33.40;30.60;;;;;;;;;;5052607;28;20444;-82
2021/09/06 10:23:17;;;;;;;32.60;30.20;;;;;;;;;;5055380;28;20422;-81
2021/09/06 10:25:46;;;;;;;30.80;28.33;;;;;;;;;;5056189;28;20422;-80
2021/09/06 10:28:14;;;;;;;31.47;29.07;;;;;;;;;;5057481;28;20419;-80
2021/09/06 10:30:43;;;;;;;31.67;29.17;;;;;;;;;;5057619;28;20407;-80
2021/09/06 10:33:22;;;;;;;31.67;29.27;;;;;;;;;;5057022;28;20451;-81
2021/09/06 10:35:51;;;;;;;31.47;29.07;;;;;;;;;;5057447;28;20489;-81
2021/09/06 10:38:19;;;;;;;30.97;28.67;;;;;;;;;;5056894;28;20415;-81
2021/09/06 10:40:46;;;;;;;31.97;29.37;;;;;;;;;;5056918;28;20918;-79
2021/09/06 10:43:15;;;;;;;31.00;28.60;;;;;;;;;;5056782;28;20515;-79
2021/09/06 10:45:43;;;;;;;30.97;28.67;;;;;;;;;;5057914;28;20437;-81
2021/09/06 10:48:10;;;;;;;30.47;28.17;;;;;;;;;;5058739;28;20485;-81
2021/09/06 10:50:38;;;;;;;29.20;27.00;;;;;;;;;;5056872;28;20441;-80
2021/09/06 10:53:07;;;;;;;30.87;28.50;;;;;;;;;;5057391;28;20455;-80
2021/09/06 10:55:34;;;;;;;30.40;27.97;;;;;;;;;;5057636;28;20447;-80
2021/09/06 10:58:02;;;;;;;30.60;28.03;;;;;;;;;;5061965;28;20436;-79
2021/09/06 11:00:29;;;;;;;29.97;27.60;;;;;;;;;;5072388;28;20472;-80
2021/09/06 11:02:56;;;;;;;30.47;28.00;;;;;;;;;;5058400;28;20445;-80
2021/09/06 11:05:25;;;;;;;29.87;27.67;;;;;;;;;;5059331;28;20922;-88
2021/09/06 11:07:53;;;;;;;29.70;27.53;;;;;;;;;;5058453;28;20420;-88
2021/09/06 11:10:22;;;;;;;30.33;27.97;;;;;;;;;;5057701;28;20918;-87
2021/09/06 11:12:54;;;;;;;29.90;27.37;;;;;;;;;;5057985;28;20995;-83
2021/09/06 11:15:24;;;;;;;29.80;27.40;;;;;;;;;;5058435;28;20437;-83
2021/09/06 11:17:56;;;;;;;28.27;26.27;;;;;;;;;;5058071;28;20493;-82
2021/09/06 11:20:25;;;;;;;30.50;28.00;;;;;;;;;;5058523;28;20416;-82
2021/09/06 11:22:53;;;;;;;30.63;28.20;;;;;;;;;;5058190;28;20524;-82
2021/09/06 11:25:29;;;;;;;32.20;28.93;;;;;;;;;;5059713;28;20448;-84
2021/09/06 11:28:05;;;;;;;30.37;27.70;;;;;;;;;;5057958;28;20456;-83
2021/09/06 11:30:33;;;;;;;29.90;27.70;;;;;;;;;;5057662;28;20476;-83
2021/09/06 11:33:04;;;;;;;30.17;27.87;;;;;;;;;;5056983;28;20507;-86
2021/09/06 11:35:32;;;;;;;33.00;30.40;;;;;;;;;;5057945;28;20444;-88
2021/09/06 11:37:59;;;;;;;31.20;28.80;;;;;;;;;;5058374;28;20413;-87
2021/09/06 11:40:29;;;;;;;31.10;28.70;;;;;;;;;;5060399;28;20461;-88
2021/09/06 11:42:57;;;;;;;31.57;29.23;;;;;;;;;;5062358;28;20813;-87
2021/09/06 11:45:25;;;;;;;30.00;27.70;;;;;;;;;;5061718;28;20441;-89
2021/09/06 11:47:57;;;;;;;31.00;28.60;;;;;;;;;;5059660;28;20419;-85
2021/09/06 11:50:24;;;;;;;33.40;30.77;;;;;;;;;;5059233;28;20445;-82
2021/09/06 11:53:00;;;;;;;32.17;29.53;;;;;;;;;;5057075;28;20500;-87
2021/09/06 11:55:29;;;;;;;31.87;29.27;;;;;;;;;;5059258;28;20445;-79
2021/09/06 11:58:06;;;;;;;31.70;29.30;;;;;;;;;;5055823;28;20416;-80
2021/09/06 12:00:35;;;;;;;30.80;28.50;;;;;;;;;;5059333;28;20469;-83
2021/09/06 12:03:03;;;;;;;31.70;29.30;;;;;;;;;;5060034;28;20431;-86
2021/09/06 12:05:38;;;;;;;32.80;30.10;;;;;;;;;;5056521;28;20766;-81
2021/09/06 12:08:10;;;;;;;32.37;29.77;;;;;;;;;;5056145;28;20469;-78
2021/09/06 12:10:40;;;;;;;31.33;29.03;;;;;;;;;;5057449;28;20455;-80
2021/09/06 12:13:08;;;;;;;32.33;29.83;;;;;;;;;;5062050;28;20481;-80
2021/09/06 12:15:36;;;;;;;32.07;29.77;;;;;;;;;;5060007;28;20423;-83
2021/09/06 12:18:11;;;;;;;31.57;29.27;;;;;;;;;;5058491;28;20432;-86
2021/09/06 12:20:42;;;;;;;31.53;29.23;;;;;;;;;;5059263;28;20471;-86
2021/09/06 12:23:10;;;;;;;31.30;28.87;;;;;;;;;;5056968;28;20966;-81
2021/09/06 12:25:38;;;;;;;29.87;27.63;;;;;;;;;;5057605;28;20812;-81
2021/09/06 12:28:12;;;;;;;31.43;29.03;;;;;;;;;;5058012;28;20460;-81
2021/09/06 12:30:40;;;;;;;32.77;30.30;;;;;;;;;;5056477;28;20434;-81
2021/09/06 12:33:08;;;;;;;30.67;28.40;;;;;;;;;;5057444;28;20478;-83
2021/09/06 12:35:35;;;;;;;30.23;28.03;;;;;;;;;;5063589;28;20449;-79
2021/09/06 12:38:03;;;;;;;31.47;28.87;;;;;;;;;;5059256;28;20453;-78
2021/09/06 12:40:31;;;;;;;31.60;29.23;;;;;;;;;;5056787;28;20441;-79
2021/09/06 12:42:58;;;;;;;30.43;28.23;;;;;;;;;;5057242;28;20497;-79
2021/09/06 12:45:29;;;;;;;30.50;28.20;;;;;;;;;;5065585;28;20450;-79
2021/09/06 12:47:57;;;;;;;31.27;28.83;;;;;;;;;;5061377;28;20493;-80
2021/09/06 12:50:26;;;;;;;30.60;28.40;;;;;;;;;;5056374;28;20452;-80
2021/09/06 12:52:54;;;;;;;29.27;27.07;;;;;;;;;;5056021;28;20453;-84
2021/09/06 12:55:23;;;;;;;29.27;27.23;;;;;;;;;;5056984;28;20439;-84
2021/09/06 12:57:50;;;;;;;30.90;28.63;;;;;;;;;;5059129;28;20428;-83
2021/09/06 13:00:17;;;;;;;32.50;30.00;;;;;;;;;;5055528;28;20934;-83
2021/09/06 13:02:46;;;;;;;31.50;29.10;;;;;;;;;;5057415;28;20438;-84
2021/09/06 13:05:20;;;;;;;30.47;28.13;;;;;;;;;;5054734;28;20420;-83
2021/09/06 13:07:47;;;;;;;29.90;27.80;;;;;;;;;;5054269;28;20542;-81
2021/09/06 13:10:15;;;;;;;31.10;28.73;;;;;;;;;;5054205;28;20445;-81
2021/09/06 13:12:42;;;;;;;33.10;30.43;;;;;;;;;;5053749;28;20442;-80
2021/09/06 13:15:10;;;;;;;34.13;31.27;;;;;;;;;;5054295;28;20480;-81
2021/09/06 13:17:38;;;;;;;34.10;31.40;;;;;;;;;;5053802;28;20438;-81
2021/09/06 13:20:08;;;;;;;31.90;29.40;;;;;;;;;;5054551;28;20428;-81
2021/09/06 13:22:37;;;;;;;32.40;29.40;;;;;;;;;;5054247;28;20449;-81
2021/09/06 13:25:06;;;;;;;32.73;30.10;;;;;;;;;;5054198;28;20470;-81
2021/09/06 13:27:34;;;;;;;31.13;28.57;;;;;;;;;;5053703;28;20481;-81
2021/09/06 13:30:02;;;;;;;31.87;29.47;;;;;;;;;;5053988;28;20430;-81
2021/09/06 13:32:31;;;;;;;31.40;29.00;;;;;;;;;;5054436;28;20479;-81
2021/09/06 13:35:00;;;;;;;31.47;28.87;;;;;;;;;;5054573;28;20492;-81
2021/09/06 13:37:29;;;;;;;31.47;28.73;;;;;;;;;;5054795;28;20423;-81
2021/09/06 13:39:56;;;;;;;31.93;29.33;;;;;;;;;;5055261;28;20492;-81
2021/09/06 13:42:23;;;;;;;30.77;28.57;;;;;;;;;;5056483;28;20442;-80
2021/09/06 13:44:51;;;;;;;29.50;27.27;;;;;;;;;;5055755;28;20420;-81
2021/09/06 13:47:18;;;;;;;31.17;28.87;;;;;;;;;;5054926;28;20433;-81
2021/09/06 13:49:45;;;;;;;29.53;27.23;;;;;;;;;;5056351;28;20950;-81
2021/09/06 13:52:13;;;;;;;29.87;27.77;;;;;;;;;;5055439;28;20481;-82
2021/09/06 13:54:42;;;;;;;31.03;28.43;;;;;;;;;;5055515;28;21014;-82
2021/09/06 13:57:10;;;;;;;30.27;28.07;;;;;;;;;;5055163;28;20417;-81
2021/09/06 13:59:37;;;;;;;30.93;28.67;;;;;;;;;;5054323;28;20425;-81
2021/09/06 14:02:04;;;;;;;28.07;25.97;;;;;;;;;;5057235;28;20898;-82
2021/09/06 14:04:32;;;;;;;30.03;27.87;;;;;;;;;;5056870;28;20521;-81
2021/09/06 14:07:01;;;;;;;29.97;27.50;;;;;;;;;;5063477;28;20442;-81
2021/09/06 14:09:30;;;;;;;28.93;26.73;;;;;;;;;;5058386;28;20939;-81
2021/09/06 14:12:00;;;;;;;29.47;27.37;;;;;;;;;;5059762;28;20443;-81
2021/09/06 14:14:27;;;;;;;29.33;26.93;;;;;;;;;;5060170;28;20495;-81
2021/09/06 14:16:58;;;;;;;28.67;26.67;;;;;;;;;;5057133;28;20433;-81
2021/09/06 14:19:25;;;;;;;30.97;28.73;;;;;;;;;;5057115;28;20455;-81
2021/09/06 14:21:54;;;;;;;29.30;27.13;;;;;;;;;;5056929;28;20414;-81
2021/09/06 14:24:24;;;;;;;29.03;26.90;;;;;;;;;;5058332;28;20426;-80
2021/09/06 14:26:52;;;;;;;30.23;28.03;;;;;;;;;;5057353;28;20448;-81